createdAt,value
2023-02-06T00:00:40.259Z,15.78
2023-02-06T00:01:45.556Z,15.79
2023-02-06T00:02:47.378Z,15.80
2023-02-06T00:03:49.252Z,15.78
2023-02-06T00:04:51.028Z,15.78
2023-02-06T00:05:57.649Z,15.77
2023-02-06T00:06:59.579Z,15.78
2023-02-06T00:08:01.557Z,15.78
2023-02-06T00:09:04.589Z,15.76
2023-02-06T00:10:06.894Z,15.73
2023-02-06T00:11:12.044Z,15.75
2023-02-06T00:12:14.009Z,15.76
2023-02-06T00:13:15.840Z,15.51
2023-02-06T00:14:17.596Z,15.74
2023-02-06T00:15:19.616Z,15.72
2023-02-06T00:16:27.618Z,15.73
2023-02-06T00:17:29.432Z,15.76
2023-02-06T00:18:31.508Z,15.69
2023-02-06T00:19:33.252Z,15.74
2023-02-06T00:20:35.086Z,15.72
2023-02-06T00:21:36.964Z,15.73
2023-02-06T00:22:39.078Z,15.72
2023-02-06T00:23:41.342Z,15.72
2023-02-06T00:24:43.119Z,15.69
2023-02-06T00:25:45.082Z,15.71
2023-02-06T00:26:47.112Z,15.60
2023-02-06T00:27:48.937Z,15.71
2023-02-06T00:28:50.904Z,15.69
2023-02-06T00:29:53.210Z,15.68
2023-02-06T00:30:55.104Z,15.66
2023-02-06T00:31:56.978Z,15.70
2023-02-06T00:32:58.981Z,15.69
2023-02-06T00:34:00.780Z,15.69
2023-02-06T00:35:02.572Z,15.68
2023-02-06T00:36:05.332Z,15.68
2023-02-06T00:37:07.136Z,15.68
2023-02-06T00:38:10.888Z,15.68
2023-02-06T00:39:12.704Z,15.68
2023-02-06T00:40:15.693Z,15.59
2023-02-06T00:41:17.501Z,15.67
2023-02-06T00:42:19.295Z,15.67
2023-02-06T00:43:21.257Z,15.63
2023-02-06T00:44:23.414Z,15.66
2023-02-06T00:45:25.201Z,15.62
2023-02-06T00:46:26.996Z,15.65
2023-02-06T00:47:28.859Z,15.62
2023-02-06T00:48:30.654Z,15.66
2023-02-06T00:49:32.432Z,15.64
2023-02-06T00:50:34.373Z,15.65
2023-02-06T00:51:38.851Z,15.64
2023-02-06T00:52:40.669Z,15.64
2023-02-06T00:53:42.429Z,15.64
2023-02-06T00:54:44.203Z,15.58
2023-02-06T00:55:45.963Z,15.63
2023-02-06T00:56:48.371Z,15.54
2023-02-06T00:57:50.133Z,15.63
2023-02-06T00:58:51.921Z,15.63
2023-02-06T00:59:54.417Z,15.63
2023-02-06T01:00:56.252Z,15.63
2023-02-06T01:01:58.632Z,15.64
2023-02-06T01:03:00.879Z,15.62
2023-02-06T01:04:02.732Z,15.62
2023-02-06T01:05:05.324Z,15.61
2023-02-06T01:06:09.881Z,15.62
2023-02-06T01:07:11.643Z,15.61
2023-02-06T01:08:13.483Z,15.61
2023-02-06T01:09:15.286Z,15.54
2023-02-06T01:10:17.175Z,15.59
2023-02-06T01:11:23.212Z,15.59
2023-02-06T01:12:24.975Z,15.59
2023-02-06T01:13:26.893Z,15.60
2023-02-06T01:14:28.813Z,15.55
2023-02-06T01:15:30.734Z,15.59
2023-02-06T01:16:32.800Z,15.58
2023-02-06T01:17:34.770Z,15.58
2023-02-06T01:18:36.739Z,15.58
2023-02-06T01:19:38.911Z,15.57
2023-02-06T01:20:41.216Z,15.57
2023-02-06T01:21:43.168Z,15.54
2023-02-06T01:22:45.069Z,15.58
2023-02-06T01:23:50.108Z,15.53
2023-02-06T01:24:52.299Z,15.52
2023-02-06T01:25:54.168Z,15.58
2023-02-06T01:26:56.014Z,15.57
2023-02-06T01:27:59.285Z,15.55
2023-02-06T01:29:02.405Z,15.55
2023-02-06T01:30:06.485Z,15.55
2023-02-06T01:31:11.388Z,15.54
2023-02-06T01:32:13.342Z,15.53
2023-02-06T01:33:15.176Z,15.55
2023-02-06T01:34:18.735Z,15.55
2023-02-06T01:35:20.538Z,15.56
2023-02-06T01:36:23.271Z,15.48
2023-02-06T01:37:25.095Z,15.53
2023-02-06T01:38:26.881Z,15.51
2023-02-06T01:39:28.681Z,15.49
2023-02-06T01:40:32.454Z,15.53
2023-02-06T01:41:34.936Z,15.52
2023-02-06T01:42:38.468Z,15.51
2023-02-06T01:44:06.930Z,15.52
2023-02-06T01:45:26.945Z,15.63
2023-02-06T01:46:28.732Z,15.57
2023-02-06T01:47:30.704Z,15.56
2023-02-06T01:48:35.706Z,15.54
2023-02-06T01:49:46.099Z,15.53
2023-02-06T01:50:56.506Z,15.53
2023-02-06T01:52:23.564Z,15.59
2023-02-06T01:53:26.965Z,15.49
2023-02-06T01:54:28.848Z,15.55
2023-02-06T01:55:30.779Z,15.51
2023-02-06T01:56:39.296Z,15.49
2023-02-06T01:57:41.996Z,15.50
2023-02-06T01:58:46.599Z,15.48
2023-02-06T01:59:54.669Z,15.48
2023-02-06T02:00:58.746Z,15.50
2023-02-06T02:02:00.610Z,15.49
2023-02-06T02:03:03.730Z,15.43
2023-02-06T02:04:08.807Z,15.46
2023-02-06T02:05:11.751Z,15.47
2023-02-06T02:06:16.576Z,15.43
2023-02-06T02:07:28.937Z,15.47
2023-02-06T02:08:40.895Z,15.47
2023-02-06T02:09:42.715Z,15.42
2023-02-06T02:10:45.210Z,15.41
2023-02-06T02:11:47.219Z,15.46
2023-02-06T02:12:49.723Z,15.45
2023-02-06T02:13:53.336Z,15.44
2023-02-06T02:14:55.974Z,15.43
2023-02-06T02:16:00.604Z,15.43
2023-02-06T02:17:33.005Z,15.48
2023-02-06T02:19:08.329Z,15.52
2023-02-06T02:20:39.564Z,15.57
2023-02-06T02:22:18.422Z,15.59
2023-02-06T02:23:36.712Z,15.58
2023-02-06T02:25:07.638Z,15.53
2023-02-06T02:26:34.933Z,15.55
2023-02-06T02:27:58.146Z,15.57
2023-02-06T02:29:47.104Z,15.56
2023-02-06T02:31:03.625Z,15.58
2023-02-06T02:32:20.624Z,15.53
2023-02-06T02:33:37.563Z,15.51
2023-02-06T02:34:51.984Z,15.48
2023-02-06T02:36:03.752Z,15.48
2023-02-06T02:37:18.084Z,15.45
2023-02-06T02:38:32.584Z,15.47
2023-02-06T02:39:45.931Z,15.44
2023-02-06T02:41:04.297Z,15.45
2023-02-06T02:42:26.714Z,15.46
2023-02-06T02:43:44.195Z,15.47
2023-02-06T02:44:55.105Z,15.45
2023-02-06T02:46:05.261Z,15.36
2023-02-06T02:47:11.848Z,15.43
2023-02-06T02:48:37.222Z,15.43
2023-02-06T02:49:41.703Z,15.44
2023-02-06T02:50:44.958Z,15.44
2023-02-06T02:51:49.526Z,15.36
2023-02-06T02:52:52.750Z,15.40
2023-02-06T02:53:58.377Z,15.39
2023-02-06T02:55:00.636Z,15.38
2023-02-06T02:56:03.056Z,15.32
2023-02-06T02:57:12.525Z,15.36
2023-02-06T02:58:19.512Z,15.38
2023-02-06T02:59:31.792Z,15.38
2023-02-06T03:01:11.558Z,15.47
2023-02-06T03:02:19.995Z,15.45
2023-02-06T03:03:23.786Z,15.46
2023-02-06T03:04:30.871Z,15.41
2023-02-06T03:05:38.028Z,15.34
2023-02-06T03:07:01.857Z,15.34
2023-02-06T03:08:32.869Z,15.50
2023-02-06T03:09:39.652Z,15.46
2023-02-06T03:10:47.203Z,15.37
2023-02-06T03:12:14.632Z,15.47
2023-02-06T03:13:42.055Z,15.49
2023-02-06T03:14:52.888Z,15.47
2023-02-06T03:16:36.559Z,15.47
2023-02-06T03:17:44.782Z,15.49
2023-02-06T03:18:59.909Z,15.41
2023-02-06T03:20:05.187Z,15.42
2023-02-06T03:21:11.072Z,15.40
2023-02-06T03:22:15.376Z,15.34
2023-02-06T03:23:23.276Z,15.36
2023-02-06T03:24:29.846Z,15.35
2023-02-06T03:25:38.129Z,15.37
2023-02-06T03:26:42.030Z,15.37
2023-02-06T03:27:45.351Z,15.36
2023-02-06T03:28:53.666Z,15.34
2023-02-06T03:29:58.341Z,15.29
2023-02-06T03:31:05.749Z,15.35
2023-02-06T03:32:35.082Z,15.41
2023-02-06T03:33:43.679Z,15.34
2023-02-06T03:34:53.930Z,15.40
2023-02-06T03:35:57.746Z,15.39
2023-02-06T03:37:00.089Z,15.37
2023-02-06T03:38:02.891Z,15.34
2023-02-06T03:39:04.852Z,15.31
2023-02-06T03:40:08.276Z,15.32
2023-02-06T03:41:12.001Z,15.32
2023-02-06T03:42:15.719Z,15.28
2023-02-06T03:43:20.065Z,15.26
2023-02-06T03:44:29.202Z,15.32
2023-02-06T03:45:36.468Z,15.33
2023-02-06T03:46:41.759Z,15.35
2023-02-06T03:47:46.270Z,15.27
2023-02-06T03:48:54.083Z,15.29
2023-02-06T03:50:00.149Z,15.09
2023-02-06T03:51:08.718Z,15.32
2023-02-06T03:52:15.629Z,15.35
2023-02-06T03:53:18.997Z,15.34
2023-02-06T03:54:23.832Z,15.32
2023-02-06T03:55:25.888Z,15.32
2023-02-06T03:56:43.552Z,15.32
2023-02-06T03:57:50.489Z,15.22
2023-02-06T03:58:52.417Z,15.36
2023-02-06T03:59:54.555Z,15.33
2023-02-06T04:00:57.263Z,15.32
2023-02-06T04:02:03.041Z,15.31
2023-02-06T04:03:05.505Z,15.32
2023-02-06T04:04:07.574Z,15.32
2023-02-06T04:05:09.445Z,15.28
2023-02-06T04:06:11.216Z,15.32
2023-02-06T04:07:22.343Z,15.32
2023-02-06T04:08:24.191Z,15.34
2023-02-06T04:09:26.101Z,15.27
2023-02-06T04:10:27.936Z,15.32
2023-02-06T04:11:30.308Z,15.32
2023-02-06T04:12:32.275Z,15.31
2023-02-06T04:13:34.067Z,15.30
2023-02-06T04:14:37.023Z,15.30
2023-02-06T04:15:38.818Z,15.29
2023-02-06T04:16:40.691Z,15.30
2023-02-06T04:17:57.600Z,15.30
2023-02-06T04:19:00.992Z,15.34
2023-02-06T04:20:04.504Z,15.34
2023-02-06T04:21:07.363Z,15.32
2023-02-06T04:22:12.304Z,15.25
2023-02-06T04:23:14.120Z,15.32
2023-02-06T04:24:15.950Z,15.31
2023-02-06T04:25:17.811Z,15.31
2023-02-06T04:26:19.585Z,15.31
2023-02-06T04:27:21.451Z,15.22
2023-02-06T04:28:23.346Z,15.29
2023-02-06T04:29:25.639Z,15.25
2023-02-06T04:30:27.450Z,15.29
2023-02-06T04:31:29.254Z,15.29
2023-02-06T04:32:31.100Z,15.30
2023-02-06T04:33:33.001Z,15.29
2023-02-06T04:34:36.353Z,15.29
2023-02-06T04:35:38.284Z,15.29
2023-02-06T04:36:40.396Z,15.28
2023-02-06T04:37:42.435Z,15.29
2023-02-06T04:38:44.264Z,15.29
2023-02-06T04:39:47.535Z,15.20
2023-02-06T04:40:49.396Z,15.30
2023-02-06T04:41:51.712Z,15.29
2023-02-06T04:42:53.609Z,15.30
2023-02-06T04:43:55.378Z,15.28
2023-02-06T04:44:57.204Z,15.29
2023-02-06T04:45:59.234Z,15.29
2023-02-06T04:47:01.934Z,15.28
2023-02-06T04:48:03.995Z,15.22
2023-02-06T04:49:05.869Z,15.29
2023-02-06T04:50:07.967Z,15.22
2023-02-06T04:51:09.865Z,15.15
2023-02-06T04:52:11.735Z,15.24
2023-02-06T04:53:13.565Z,15.27
2023-02-06T04:54:17.442Z,15.27
2023-02-06T04:55:19.292Z,15.29
2023-02-06T04:56:21.145Z,15.29
2023-02-06T04:57:23.810Z,15.27
2023-02-06T04:58:25.737Z,15.27
2023-02-06T04:59:27.628Z,15.24
2023-02-06T05:00:29.456Z,15.25
2023-02-06T05:01:31.353Z,15.27
2023-02-06T05:02:39.551Z,15.28
2023-02-06T05:03:41.716Z,15.27
2023-02-06T05:04:43.452Z,15.26
2023-02-06T05:05:45.257Z,15.26
2023-02-06T05:06:47.224Z,15.26
2023-02-06T05:07:49.002Z,15.27
2023-02-06T05:08:50.872Z,15.16
2023-02-06T05:09:52.663Z,15.25
2023-02-06T05:10:55.437Z,15.25
2023-02-06T05:11:57.360Z,15.24
2023-02-06T05:12:59.149Z,15.24
2023-02-06T05:14:00.909Z,15.24
2023-02-06T05:15:03.541Z,15.24
2023-02-06T05:16:13.469Z,15.21
2023-02-06T05:17:15.446Z,15.27
2023-02-06T05:18:17.532Z,15.27
2023-02-06T05:19:19.311Z,15.25
2023-02-06T05:20:21.252Z,15.25
2023-02-06T05:21:23.982Z,15.23
2023-02-06T05:22:26.293Z,15.24
2023-02-06T05:23:28.482Z,15.23
2023-02-06T05:24:30.434Z,15.23
2023-02-06T05:25:32.297Z,15.01
2023-02-06T05:26:34.281Z,15.22
2023-02-06T05:27:36.074Z,15.22
2023-02-06T05:28:37.919Z,15.22
2023-02-06T05:29:39.899Z,15.22
2023-02-06T05:30:41.792Z,15.21
2023-02-06T05:31:43.707Z,15.21
2023-02-06T05:32:45.662Z,15.22
2023-02-06T05:33:51.858Z,15.21
2023-02-06T05:34:53.923Z,15.23
2023-02-06T05:36:05.242Z,15.19
2023-02-06T05:37:06.994Z,15.25
2023-02-06T05:38:08.872Z,15.22
2023-02-06T05:39:10.696Z,15.22
2023-02-06T05:40:13.938Z,15.21
2023-02-06T05:41:16.536Z,15.12
2023-02-06T05:42:18.381Z,15.21
2023-02-06T05:43:20.157Z,15.21
2023-02-06T05:44:22.021Z,15.17
2023-02-06T05:45:24.922Z,15.17
2023-02-06T05:46:27.053Z,15.16
2023-02-06T05:47:29.112Z,15.19
2023-02-06T05:48:31.148Z,15.11
2023-02-06T05:49:33.118Z,15.20
2023-02-06T05:50:34.961Z,15.01
2023-02-06T05:51:39.629Z,15.19
2023-02-06T05:52:41.832Z,15.16
2023-02-06T05:53:43.655Z,15.18
2023-02-06T05:54:45.585Z,15.18
2023-02-06T05:55:47.394Z,15.17
2023-02-06T05:56:49.285Z,15.17
2023-02-06T05:57:51.099Z,15.17
2023-02-06T05:58:52.934Z,15.18
2023-02-06T05:59:54.713Z,15.16
2023-02-06T06:00:56.627Z,15.16
2023-02-06T06:01:58.707Z,15.13
2023-02-06T06:03:00.491Z,15.17
2023-02-06T06:04:02.947Z,15.15
2023-02-06T06:05:05.103Z,15.16
2023-02-06T06:06:07.678Z,15.15
2023-02-06T06:07:09.494Z,15.15
2023-02-06T06:08:11.349Z,15.15
2023-02-06T06:09:13.211Z,15.16
2023-02-06T06:10:15.155Z,15.16
2023-02-06T06:11:17.046Z,15.18
2023-02-06T06:12:18.832Z,15.15
2023-02-06T06:13:20.829Z,15.13
2023-02-06T06:14:23.473Z,15.18
2023-02-06T06:15:25.277Z,15.24
2023-02-06T06:16:27.258Z,15.25
2023-02-06T06:17:29.152Z,15.20
2023-02-06T06:18:31.085Z,15.28
2023-02-06T06:19:32.959Z,15.33
2023-02-06T06:20:35.000Z,15.35
2023-02-06T06:21:36.959Z,15.38
2023-02-06T06:22:38.796Z,15.40
2023-02-06T06:23:40.658Z,15.39
2023-02-06T06:24:42.474Z,15.47
2023-02-06T06:25:47.091Z,15.50
2023-02-06T06:26:48.873Z,15.54
2023-02-06T06:27:50.824Z,15.58
2023-02-06T06:28:52.754Z,15.62
2023-02-06T06:29:54.596Z,15.64
2023-02-06T06:31:04.492Z,15.69
2023-02-06T06:32:06.825Z,15.73
2023-02-06T06:33:08.644Z,15.75
2023-02-06T06:34:10.767Z,15.78
2023-02-06T06:35:12.541Z,15.77
2023-02-06T06:36:14.816Z,15.83
2023-02-06T06:37:16.666Z,15.86
2023-02-06T06:38:18.552Z,15.82
2023-02-06T06:39:20.467Z,15.93
2023-02-06T06:40:22.293Z,15.94
2023-02-06T06:41:24.123Z,15.97
2023-02-06T06:42:26.057Z,16.00
2023-02-06T06:43:27.948Z,16.03
2023-02-06T06:44:29.833Z,16.06
2023-02-06T06:45:31.683Z,16.09
2023-02-06T06:46:33.520Z,16.10
2023-02-06T06:47:35.402Z,16.13
2023-02-06T06:48:38.378Z,16.14
2023-02-06T06:49:40.217Z,16.16
2023-02-06T06:50:42.559Z,16.19
2023-02-06T06:51:44.415Z,16.22
2023-02-06T06:52:46.235Z,16.23
2023-02-06T06:53:48.255Z,16.23
2023-02-06T06:54:51.976Z,16.25
2023-02-06T06:55:54.086Z,16.27
2023-02-06T06:56:55.852Z,16.28
2023-02-06T06:57:57.674Z,16.28
2023-02-06T06:58:59.494Z,16.31
2023-02-06T07:00:01.399Z,16.30
2023-02-06T07:01:03.396Z,16.23
2023-02-06T07:02:05.580Z,16.33
2023-02-06T07:03:07.840Z,16.35
2023-02-06T07:04:09.760Z,16.35
2023-02-06T07:05:11.958Z,16.36
2023-02-06T07:06:14.363Z,16.37
2023-02-06T07:07:16.237Z,16.37
2023-02-06T07:08:18.013Z,16.38
2023-02-06T07:09:19.852Z,16.38
2023-02-06T07:10:22.184Z,16.39
2023-02-06T07:11:26.161Z,16.41
2023-02-06T07:12:28.308Z,16.34
2023-02-06T07:13:30.201Z,16.41
2023-02-06T07:14:31.953Z,16.41
2023-02-06T07:15:34.073Z,16.41
2023-02-06T07:16:36.034Z,16.42
2023-02-06T07:17:38.890Z,16.42
2023-02-06T07:18:41.982Z,16.42
2023-02-06T07:19:48.132Z,16.44
2023-02-06T07:20:51.484Z,16.44
2023-02-06T07:21:53.597Z,16.43
2023-02-06T07:22:55.371Z,16.36
2023-02-06T07:23:57.222Z,16.44
2023-02-06T07:24:59.027Z,16.44
2023-02-06T07:26:02.428Z,16.39
2023-02-06T07:27:04.240Z,16.45
2023-02-06T07:28:06.102Z,16.46
2023-02-06T07:29:08.200Z,16.38
2023-02-06T07:30:10.525Z,16.45
2023-02-06T07:31:12.365Z,16.19
2023-02-06T07:32:14.196Z,16.46
2023-02-06T07:33:16.040Z,16.44
2023-02-06T07:34:17.853Z,16.46
2023-02-06T07:35:19.747Z,16.46
2023-02-06T07:36:21.659Z,16.47
2023-02-06T07:37:23.429Z,16.47
2023-02-06T07:38:25.796Z,16.41
2023-02-06T07:39:27.893Z,16.24
2023-02-06T07:40:44.155Z,16.48
2023-02-06T07:41:49.123Z,16.51
2023-02-06T07:42:51.058Z,16.50
2023-02-06T07:44:01.117Z,16.46
2023-02-06T07:45:03.034Z,16.49
2023-02-06T07:46:05.630Z,16.50
2023-02-06T07:47:09.577Z,16.47
2023-02-06T07:48:11.935Z,16.48
2023-02-06T07:49:15.149Z,16.47
2023-02-06T07:50:17.044Z,16.41
2023-02-06T07:51:19.065Z,16.46
2023-02-06T07:52:22.461Z,16.45
2023-02-06T07:53:24.373Z,16.41
2023-02-06T07:54:26.382Z,16.45
2023-02-06T07:55:28.598Z,16.45
2023-02-06T07:56:30.432Z,16.43
2023-02-06T07:57:32.223Z,16.43
2023-02-06T07:58:34.071Z,16.44
2023-02-06T07:59:35.854Z,16.43
2023-02-06T08:00:38.483Z,16.42
2023-02-06T08:01:40.342Z,16.44
2023-02-06T08:02:42.266Z,16.43
2023-02-06T08:03:44.045Z,16.43
2023-02-06T08:04:45.903Z,16.43
2023-02-06T08:05:47.776Z,16.43
2023-02-06T08:06:49.640Z,16.43
2023-02-06T08:07:52.187Z,16.35
2023-02-06T08:08:57.561Z,16.43
2023-02-06T08:09:59.407Z,16.44
2023-02-06T08:11:06.212Z,16.43
2023-02-06T08:12:10.895Z,16.44
2023-02-06T08:13:13.957Z,16.45
2023-02-06T08:14:15.865Z,16.44
2023-02-06T08:15:17.930Z,16.32
2023-02-06T08:16:21.819Z,16.42
2023-02-06T08:17:23.782Z,16.43
2023-02-06T08:18:26.276Z,16.42
2023-02-06T08:19:28.039Z,16.43
2023-02-06T08:20:30.050Z,16.41
2023-02-06T08:21:31.820Z,16.44
2023-02-06T08:22:33.564Z,16.44
2023-02-06T08:23:35.533Z,16.44
2023-02-06T08:24:37.452Z,16.44
2023-02-06T08:25:39.318Z,16.43
2023-02-06T08:26:41.236Z,16.44
2023-02-06T08:27:43.309Z,16.27
2023-02-06T08:28:47.428Z,16.42
2023-02-06T08:29:49.372Z,16.44
2023-02-06T08:30:51.221Z,16.34
2023-02-06T08:31:53.181Z,16.43
2023-02-06T08:32:55.017Z,16.44
2023-02-06T08:33:57.194Z,16.41
2023-02-06T08:34:59.033Z,16.44
2023-02-06T08:36:04.682Z,16.43
2023-02-06T08:37:06.533Z,16.36
2023-02-06T08:38:08.943Z,16.44
2023-02-06T08:39:13.448Z,16.42
2023-02-06T08:40:15.276Z,16.44
2023-02-06T08:41:19.792Z,16.43
2023-02-06T08:42:21.816Z,16.44
2023-02-06T08:43:23.692Z,16.43
2023-02-06T08:44:25.693Z,16.43
2023-02-06T08:45:27.448Z,16.42
2023-02-06T08:46:32.193Z,16.42
2023-02-06T08:47:34.273Z,16.42
2023-02-06T08:48:36.136Z,16.23
2023-02-06T08:49:38.263Z,16.43
2023-02-06T08:50:40.012Z,16.43
2023-02-06T08:51:42.203Z,16.42
2023-02-06T08:52:44.080Z,16.42
2023-02-06T08:53:46.012Z,16.43
2023-02-06T08:54:51.109Z,16.42
2023-02-06T08:56:01.588Z,16.44
2023-02-06T08:57:03.481Z,16.46
2023-02-06T08:58:05.320Z,16.43
2023-02-06T08:59:08.259Z,16.43
2023-02-06T09:00:10.573Z,16.42
2023-02-06T09:01:14.491Z,16.42
2023-02-06T09:02:16.519Z,16.33
2023-02-06T09:03:18.608Z,16.43
2023-02-06T09:04:20.972Z,16.42
2023-02-06T09:05:23.400Z,16.41
2023-02-06T09:06:26.422Z,16.42
2023-02-06T09:07:28.216Z,16.42
2023-02-06T09:08:31.156Z,16.42
2023-02-06T09:09:33.004Z,16.41
2023-02-06T09:10:34.816Z,16.36
2023-02-06T09:11:37.290Z,16.41
2023-02-06T09:12:39.088Z,16.42
2023-02-06T09:13:40.925Z,16.42
2023-02-06T09:14:42.780Z,16.40
2023-02-06T09:15:53.947Z,16.42
2023-02-06T09:16:58.078Z,16.44
2023-02-06T09:17:59.828Z,16.44
2023-02-06T09:19:02.406Z,16.32
2023-02-06T09:20:05.417Z,16.33
2023-02-06T09:21:18.927Z,16.43
2023-02-06T09:22:20.717Z,16.46
2023-02-06T09:23:22.469Z,16.46
2023-02-06T09:24:24.473Z,16.44
2023-02-06T09:25:26.295Z,16.45
2023-02-06T09:26:34.054Z,16.44
2023-02-06T09:27:36.828Z,16.45
2023-02-06T09:28:38.756Z,16.45
2023-02-06T09:29:40.640Z,16.44
2023-02-06T09:30:42.427Z,16.34
2023-02-06T09:31:44.697Z,16.44
2023-02-06T09:32:46.589Z,16.45
2023-02-06T09:33:48.616Z,16.43
2023-02-06T09:34:50.404Z,16.44
2023-02-06T09:36:05.242Z,16.46
2023-02-06T09:37:07.024Z,16.48
2023-02-06T09:38:08.909Z,16.46
2023-02-06T09:39:10.799Z,16.46
2023-02-06T09:40:21.776Z,16.46
2023-02-06T09:41:49.166Z,16.47
2023-02-06T09:42:53.524Z,16.51
2023-02-06T09:44:11.429Z,16.41
2023-02-06T09:45:16.890Z,16.48
2023-02-06T09:46:27.007Z,16.50
2023-02-06T09:47:38.838Z,16.49
2023-02-06T09:48:42.976Z,16.41
2023-02-06T09:49:49.170Z,16.49
2023-02-06T09:51:26.209Z,16.56
2023-02-06T09:52:53.713Z,16.59
2023-02-06T09:53:58.237Z,16.57
2023-02-06T09:55:09.278Z,16.48
2023-02-06T09:56:40.182Z,16.47
2023-02-06T09:57:51.852Z,16.56
2023-02-06T09:59:15.202Z,16.57
2023-02-06T10:00:31.424Z,16.58
2023-02-06T10:02:05.381Z,16.62
2023-02-06T10:03:07.139Z,16.59
2023-02-06T10:04:47.274Z,16.56
2023-02-06T10:05:54.567Z,16.58
2023-02-06T10:07:19.117Z,16.57
2023-02-06T10:08:39.373Z,16.56
2023-02-06T10:09:51.837Z,16.49
2023-02-06T10:10:56.103Z,16.55
2023-02-06T10:12:04.779Z,16.51
2023-02-06T10:13:32.590Z,16.57
2023-02-06T10:14:58.856Z,16.59
2023-02-06T10:16:23.721Z,16.57
2023-02-06T10:17:38.070Z,16.58
2023-02-06T10:18:44.865Z,16.55
2023-02-06T10:20:06.481Z,16.57
2023-02-06T10:21:21.069Z,16.53
2023-02-06T10:22:40.416Z,16.51
2023-02-06T10:23:58.165Z,16.58
2023-02-06T10:25:23.572Z,16.61
2023-02-06T10:26:25.458Z,16.59
2023-02-06T10:27:27.237Z,16.55
2023-02-06T10:28:31.074Z,16.33
2023-02-06T10:29:36.413Z,16.45
2023-02-06T10:31:08.741Z,16.57
2023-02-06T10:32:19.570Z,16.35
2023-02-06T10:33:33.400Z,16.57
2023-02-06T10:34:47.446Z,16.59
2023-02-06T10:36:39.940Z,16.67
2023-02-06T10:38:05.825Z,16.69
2023-02-06T10:39:58.754Z,16.67
2023-02-06T10:41:03.231Z,16.68
2023-02-06T10:42:16.561Z,16.63
2023-02-06T10:43:37.023Z,16.47
2023-02-06T10:44:51.387Z,16.63
2023-02-06T10:46:30.784Z,16.65
2023-02-06T10:47:44.786Z,16.66
2023-02-06T10:48:51.660Z,16.64
2023-02-06T10:50:02.053Z,16.59
2023-02-06T10:51:42.500Z,16.58
2023-02-06T10:52:45.530Z,16.66
2023-02-06T10:54:35.251Z,16.65
2023-02-06T10:55:53.186Z,16.69
2023-02-06T10:56:58.160Z,16.66
2023-02-06T10:58:13.019Z,16.65
2023-02-06T10:59:28.284Z,16.63
2023-02-06T11:00:31.699Z,16.50
2023-02-06T11:01:39.447Z,16.60
2023-02-06T11:03:06.832Z,16.60
2023-02-06T11:04:53.434Z,16.72
2023-02-06T11:05:55.672Z,16.71
2023-02-06T11:07:02.227Z,16.64
2023-02-06T11:08:09.656Z,16.63
2023-02-06T11:09:11.734Z,16.58
2023-02-06T11:10:19.951Z,16.59
2023-02-06T11:11:36.193Z,16.61
2023-02-06T11:12:42.214Z,16.62
2023-02-06T11:13:46.642Z,16.62
2023-02-06T11:14:50.642Z,16.58
2023-02-06T11:16:04.926Z,16.60
2023-02-06T11:17:06.807Z,16.57
2023-02-06T11:18:14.594Z,16.61
2023-02-06T11:19:23.104Z,16.61
2023-02-06T11:20:29.502Z,16.58
2023-02-06T11:21:54.047Z,16.65
2023-02-06T11:22:56.608Z,16.68
2023-02-06T11:24:12.982Z,16.67
2023-02-06T11:25:34.055Z,16.70
2023-02-06T11:26:45.255Z,16.59
2023-02-06T11:27:47.490Z,16.62
2023-02-06T11:28:52.432Z,16.64
2023-02-06T11:29:54.624Z,16.57
2023-02-06T11:31:02.630Z,16.63
2023-02-06T11:32:07.148Z,16.63
2023-02-06T11:33:20.252Z,16.63
2023-02-06T11:34:32.441Z,16.66
2023-02-06T11:35:40.497Z,16.63
2023-02-06T11:36:42.998Z,16.66
2023-02-06T11:37:44.933Z,16.66
2023-02-06T11:38:55.779Z,16.64
2023-02-06T11:40:19.190Z,16.70
2023-02-06T11:41:22.184Z,16.70
2023-02-06T11:42:24.964Z,16.67
2023-02-06T11:43:31.348Z,16.60
2023-02-06T11:44:39.337Z,16.66
2023-02-06T11:45:41.392Z,16.67
2023-02-06T11:46:43.308Z,16.66
2023-02-06T11:47:45.100Z,16.64
2023-02-06T11:49:08.272Z,16.64
2023-02-06T11:50:13.061Z,16.70
2023-02-06T11:51:16.908Z,16.68
2023-02-06T11:52:33.210Z,16.70
2023-02-06T11:53:36.241Z,16.70
2023-02-06T11:54:38.100Z,16.68
2023-02-06T11:55:42.637Z,16.67
2023-02-06T11:57:03.413Z,16.64
2023-02-06T11:58:14.260Z,16.72
2023-02-06T11:59:21.525Z,16.71
2023-02-06T12:00:24.145Z,16.71
2023-02-06T12:01:25.976Z,16.69
2023-02-06T12:02:34.809Z,16.68
2023-02-06T12:03:51.469Z,16.73
2023-02-06T12:05:17.219Z,16.71
2023-02-06T12:06:32.287Z,16.77
2023-02-06T12:07:57.432Z,16.80
2023-02-06T12:09:09.288Z,16.77
2023-02-06T12:10:17.670Z,16.72
2023-02-06T12:11:27.258Z,16.76
2023-02-06T12:12:34.221Z,16.74
2023-02-06T12:13:43.047Z,16.68
2023-02-06T12:14:59.142Z,16.65
2023-02-06T12:16:04.200Z,16.75
2023-02-06T12:17:32.851Z,16.68
2023-02-06T12:18:41.047Z,16.77
2023-02-06T12:19:52.343Z,16.76
2023-02-06T12:21:00.368Z,16.76
2023-02-06T12:22:10.863Z,16.74
2023-02-06T12:23:22.545Z,16.76
2023-02-06T12:24:36.108Z,16.75
2023-02-06T12:25:43.300Z,16.69
2023-02-06T12:26:48.004Z,16.75
2023-02-06T12:27:52.328Z,16.74
2023-02-06T12:29:15.187Z,16.74
2023-02-06T12:30:27.115Z,16.77
2023-02-06T12:31:39.318Z,16.77
2023-02-06T12:32:46.701Z,16.77
2023-02-06T12:33:54.934Z,16.76
2023-02-06T12:35:14.550Z,16.75
2023-02-06T12:36:22.620Z,16.80
2023-02-06T12:37:44.892Z,16.81
2023-02-06T12:38:55.545Z,16.80
2023-02-06T12:39:59.736Z,16.78
2023-02-06T12:41:19.389Z,16.75
2023-02-06T12:42:43.110Z,16.76
2023-02-06T12:43:51.524Z,16.82
2023-02-06T12:45:00.653Z,16.79
2023-02-06T12:46:20.665Z,16.69
2023-02-06T12:47:45.112Z,16.85
2023-02-06T12:49:05.729Z,16.84
2023-02-06T12:50:32.786Z,16.82
2023-02-06T12:51:44.256Z,16.85
2023-02-06T12:53:02.581Z,16.85
2023-02-06T12:54:16.686Z,16.85
2023-02-06T12:55:26.513Z,16.80
2023-02-06T12:56:37.648Z,16.82
2023-02-06T12:57:39.976Z,16.82
2023-02-06T12:58:44.498Z,16.79
2023-02-06T12:59:57.923Z,16.78
2023-02-06T13:01:14.573Z,16.81
2023-02-06T13:03:04.136Z,16.87
2023-02-06T13:04:20.208Z,16.90
2023-02-06T13:05:27.148Z,16.87
2023-02-06T13:06:35.908Z,16.85
2023-02-06T13:07:48.979Z,16.83
2023-02-06T13:09:06.549Z,16.85
2023-02-06T13:10:16.501Z,16.85
2023-02-06T13:11:21.364Z,16.84
2023-02-06T13:12:25.957Z,16.83
2023-02-06T13:13:31.444Z,16.81
2023-02-06T13:14:35.962Z,16.81
2023-02-06T13:15:41.369Z,16.75
2023-02-06T13:16:45.043Z,16.81
2023-02-06T13:17:47.158Z,16.80
2023-02-06T13:18:53.030Z,16.75
2023-02-06T13:20:07.303Z,16.81
2023-02-06T13:21:22.192Z,16.84
2023-02-06T13:22:52.511Z,16.88
2023-02-06T13:24:03.357Z,16.86
2023-02-06T13:25:30.050Z,16.93
2023-02-06T13:26:51.716Z,16.93
2023-02-06T13:27:55.778Z,16.91
2023-02-06T13:28:58.645Z,16.88
2023-02-06T13:30:29.602Z,16.92
2023-02-06T13:31:34.527Z,16.90
2023-02-06T13:32:46.208Z,16.86
2023-02-06T13:33:55.290Z,16.86
2023-02-06T13:35:17.589Z,16.88
2023-02-06T13:36:27.627Z,16.87
2023-02-06T13:37:40.006Z,16.86
2023-02-06T13:38:42.539Z,16.82
2023-02-06T13:39:47.852Z,16.81
2023-02-06T13:41:14.392Z,16.88
2023-02-06T13:43:07.231Z,16.95
2023-02-06T13:44:21.524Z,16.95
2023-02-06T13:45:52.402Z,16.96
2023-02-06T13:47:24.702Z,16.96
2023-02-06T13:48:37.087Z,16.95
2023-02-06T13:49:56.331Z,16.93
2023-02-06T13:51:55.274Z,16.95
2023-02-06T13:53:27.896Z,17.01
2023-02-06T13:54:41.254Z,16.97
2023-02-06T13:56:20.392Z,16.97
2023-02-06T13:57:54.971Z,17.01
2023-02-06T13:59:06.042Z,16.97
2023-02-06T14:00:29.004Z,16.96
2023-02-06T14:01:31.329Z,16.94
2023-02-06T14:02:48.755Z,16.91
2023-02-06T14:03:52.981Z,16.90
2023-02-06T14:04:56.868Z,16.83
2023-02-06T14:06:10.432Z,16.88
2023-02-06T14:07:36.564Z,16.90
2023-02-06T14:08:38.385Z,16.92
2023-02-06T14:09:48.149Z,16.88
2023-02-06T14:11:34.427Z,16.94
2023-02-06T14:12:47.441Z,16.95
2023-02-06T14:14:04.519Z,16.94
2023-02-06T14:15:35.544Z,16.96
2023-02-06T14:16:56.709Z,16.97
2023-02-06T14:18:20.416Z,16.99
2023-02-06T14:19:47.068Z,17.00
2023-02-06T14:21:12.517Z,16.97
2023-02-06T14:22:37.068Z,16.74
2023-02-06T14:23:45.657Z,16.98
2023-02-06T14:25:05.419Z,16.94
2023-02-06T14:26:13.047Z,16.95
2023-02-06T14:27:26.741Z,16.93
2023-02-06T14:28:42.413Z,16.93